• Join FlightAware (Why Join?)
  • Login
  • US Flag 
03:23PM EDT


 

Airport Tracker/Info


-or-


 

Live Flight TrackerFlight Track Log ✈ AWE3287 ✈ 28-Apr-2013 ✈ KDTW - KPHL

Flight Track Log - Related Links

Times and Time Zones

All times are in EDT time to prevent confusion due to time zone crossing. See the AWE3287 flight status page for this flight to view local times or setup timezone preferences in your user account.

Time Position Orientation Groundspeed Altitude Reporting Facility
EDT Latitude Longitude Course Direction KTS MPH feet Rate Location/Type
11:41AM 42.1972 -83.3608 90° East 154 177 1,500  Level Cleveland Center
11:42AM 42.1556 -83.3617 181° South 199 229 2,700 1,800 Climbing Cleveland Center
11:43AM 42.0953 -83.3619 180° South 230 265 5,000 2,160 Climbing Cleveland Center
11:44AM 42.2167 -82.9115 90° East  Level FlightAware Approximate
11:44AM 42.0844 -83.2858 101° East 272 313 7,100  Level Cleveland Center
11:45AM 42.2167 -82.7637 90° East  Level FlightAware Approximate
11:45AM 42.1017 -83.1664 79° East 293 337 9,600  Level Cleveland Center
11:46AM 42.2167 -82.6159 90° East  Level FlightAware Approximate
11:46AM 42.1208 -83.0578 77° East 293 337 11,700  Level Cleveland Center
11:47AM 42.2167 -82.4681 90° East  Level FlightAware Approximate
11:47AM 42.1422 -82.9411 76° East 303 349 13,700  Level Cleveland Center
11:48AM 42.1633 -82.8214 77° East 318 366 15,600 1,800 Climbing Cleveland Center
11:49AM 42.1822 -82.6931 79° East 330 380 17,300 1,560 Climbing Cleveland Center
11:50AM 42.2033 -82.5650 77° East 340 391 18,800 1,380 Climbing Cleveland Center
11:51AM 42.2222 -82.4308 79° East 350 403 20,100 1,320 Climbing Cleveland Center
11:52AM 42.2142 -82.2906 94° East 356 410 21,500 1,380 Climbing Cleveland Center
11:53AM 42.2036 -82.1444 96° East 375 432 22,900 1,320 Climbing Cleveland Center
11:54AM 42.1947 -82.0181 95° East 385 443 24,200 1,200 Climbing Cleveland Center
11:55AM 42.1506 -81.8883 115° Southeast 378 435 25,300 1,140 Climbing Cleveland Center
11:56AM 42.0703 -81.7972 140° Southeast 367 422 26,600 1,200 Climbing Cleveland Center
11:57AM 41.9878 -81.7061 141° Southeast 380 437 27,800 1,140 Climbing Cleveland Center
11:58AM 41.8972 -81.5986 139° Southeast 393 452 28,900 1,140 Climbing Cleveland Center
11:59AM 41.8103 -81.5025 141° Southeast 400 460 30,100 900 Climbing Cleveland Center
12:00PM 41.7256 -81.4039 139° Southeast 400 460 30,800 420 Climbing Cleveland Center
12:01PM 41.6367 -81.3000 139° Southeast 405 466 31,000 60 Climbing Cleveland Center
12:02PM 41.5517 -81.2047 140° Southeast 411 473 31,000  Level Cleveland Center
12:03PM 41.4669 -81.0958 136° Southeast 416 479 31,000  Level Cleveland Center
12:04PM 41.3819 -80.9789 134° Southeast 421 484 31,000  Level Cleveland Center
12:05PM 41.3092 -80.8761 133° Southeast 426 490 31,000  Level Cleveland Center
12:06PM 41.2261 -80.7625 134° Southeast 426 490 31,000  Level Cleveland Center
12:07PM 41.1450 -80.6492 134° Southeast 426 490 31,000  Level Cleveland Center
12:08PM 41.0636 -80.5336 133° Southeast 426 490 31,000  Level Cleveland Center
12:09PM 40.9800 -80.4208 134° Southeast 426 490 31,000  Level Cleveland Center
12:10PM 40.8944 -80.3058 135° Southeast 432 497 31,000  Level Cleveland Center
12:11PM 40.8086 -80.1772 131° Southeast 432 497 31,000  Level Cleveland Center
12:12PM 40.7558 -80.0267 115° Southeast 437 503 31,000  Level Cleveland Center
12:13PM 40.7092 -79.8875 114° Southeast 444 511 31,000  Level Cleveland Center
12:14PM 40.6539 -79.7375 116° Southeast 449 517 31,000  Level Cleveland Center
12:15PM 40.5986 -79.5906 116° Southeast 449 517 31,000  Level Cleveland Center
12:16PM 40.5575 -79.4297 109° East 449 517 31,000  Level Cleveland Center
12:17PM 40.5369 -79.2636 99° East 449 517 31,000  Level Cleveland Center
12:18PM 40.5203 -79.0944 97° East 459 528 31,000  Level Cleveland Center
12:19PM 40.5033 -78.9228 97° East 464 534 31,000  Level Cleveland Center
12:20PM 40.4861 -78.7567 98° East 464 534 31,000 -840 Level Cleveland Center
12:21PM 40.4686 -78.5881 98° East 464 534 29,400 -1,680 Descending Cleveland Center
12:22PM 40.4511 -78.4247 98° East 458 527 27,700 -1,740 Descending Cleveland Center
12:23PM 40.4386 -78.2956 97° East 453 521 26,500 -1,320 Descending New York Center
12:24PM 40.4244 -78.1575 98° East 448 516 25,400 -780 Descending New York Center
12:25PM 40.4086 -78.0086 98° East 424 488 25,000 -240 Descending New York Center
12:26PM 40.3908 -77.8539 99° East 418 481 25,000  Level New York Center
12:27PM 40.3764 -77.7108 98° East 410 472 25,000 -240 Level New York Center
12:28PM 40.3597 -77.5700 99° East 396 456 24,600 -600 Descending New York Center
12:29PM 40.3444 -77.4325 98° East 391 450 23,800 -900 Descending New York Center
12:30PM 40.3294 -77.2919 98° East 391 450 22,800 -1,080 Descending New York Center
12:31PM 40.3097 -77.1567 101° East 385 443 21,700 -1,020 Descending New York Center
12:32PM 40.2894 -77.0269 102° East 375 432 20,800 -1,020 Descending New York Center
12:33PM 40.2631 -76.8967 105° East 363 418 19,800 -1,200 Descending New York Center
12:34PM 40.2650 -76.7744 89° East 346 398 18,500 -1,500 Descending New York Center
12:35PM 40.2881 -76.6486 76° East 327 376 16,800 -1,740 Descending New York Center
12:36PM 40.2589 -76.5208 107° East 333 383 15,000 -1,860 Descending New York Center
12:37PM 40.2353 -76.4075 105° East 352 405 13,200 -1,800 Descending New York Center
12:38PM 40.2075 -76.2883 107° East 352 405 11,500 -1,620 Descending New York Center
12:39PM 40.1833 -76.1778 106° East 330 380 10,000 -1,500 Descending New York Center
12:40PM 40.1550 -76.0669 108° East 301 346 8,600 -1,020 Descending New York Center
12:41PM 40.1342 -75.9728 106° East 271 312 8,000 -300 Descending New York Center
12:42PM 40.1150 -75.8872 106° East 271 312 8,000  Level New York Center
12:43PM 40.0903 -75.7878 108° East 271 312 8,100  Climbing New York Center
12:44PM 40.0794 -75.6975 99° East 271 312 8,100 -720 Level New York Center
12:45PM 40.0733 -75.5911 94° East 271 312 6,700 -1,020 Descending New York Center
12:46PM 40.0706 -75.5042 92° East 271 312 6,100 -300 Descending New York Center
12:47PM 40.0625 -75.3978 96° East 271 312 6,100  Level New York Center
12:48PM 40.0594 -75.3108 93° East 271 312 6,100 -60 Level New York Center
12:49PM 40.0500 -75.2333 99° East 208 239 6,000  Descending Philadelphia TRACON
12:50PM 40.0333 -75.1667 108° East 196 226 6,100 -480 Climbing Philadelphia TRACON
12:51PM 40.0167 -75.1000 108° East 198 228 5,100 -1,380 Descending Philadelphia TRACON
12:52PM 40.0000 -75.0500 114° Southeast 191 220 3,500 -1,440 Descending Philadelphia TRACON
12:53PM 39.9500 -75.0500 180° South 171 197 2,300 -660 Descending Philadelphia TRACON
12:54PM 39.9000 -75.0667 194° South 180 207 2,200 -360 Descending Philadelphia TRACON
12:55PM 39.9000 -75.1333 270° West 152 175 1,600 -600 Descending Philadelphia TRACON